Ever Ulysses — 9V7962 — position and weather

sailwx.info

Track history (hours):
 
Tides and Currents Weather Stations Pressure Air Temp Water Temp Dewpoint Dewpoint Depression Visibility Wind Speed Wind Dir Waves Ship Positions

Ever Ulysses

Last reported at 2017-Nov-24 04:00 UTC. Time now 2017-Nov-24 04:11 UTC.
Position N 48°13' W 123°42'.

Length 285 m; draft 11.2 m.

Type: Cargo ship. MMSI: 564442000.

Date/timePositionNaut miles runAvg speedWind from/ knotsBaromVisibWave heightAir tempDewpointWater temp
2017-Nov-24 04:00N 48°13' W 123°42'5 9.5
2017-Nov-24 03:30N 48°13' W 123°49'5 9.9
2017-Nov-24 03:00N 48°14' W 123°56'510.3
2017-Nov-24 02:30N 48°16' W 124°03'611.8
2017-Nov-24 02:00N 48°18' W 124°11'815.6
2017-Nov-24 01:30N 48°22' W 124°22'815.1
2017-Nov-24 01:01N 48°25' W 124°32'816.0
2017-Nov-24 00:30N 48°28' W 124°43'918.6
2017-Nov-24 00:00N 48°29' W 124°57'918.9
2017-Nov-23 23:30N 48°29' W 125°11'918.6
2017-Nov-23 23:01N 48°29' W 125°25'918.5
2017-Nov-23 22:30N 48°29' W 125°40'918.3
2017-Nov-23 22:00N 48°29' W 125°53'918.9
2017-Nov-23 21:30N 48°29' W 126°07'1019.3
2017-Nov-23 21:00N 48°29' W 126°22'89819.1
2017-Nov-21 22:00N 52°00' W 149°06'   020 / 81015.310.8 14.012.2 8.0
Track history (hours):
 
Tides and Currents Weather Stations Pressure Air Temp Water Temp Dewpoint Dewpoint Depression Visibility Wind Speed Wind Dir Waves Ship Positions

Ever Ulysses

Last reported at 2017-Nov-24 04:00 UTC. Time now 2017-Nov-24 04:11 UTC.
Position N 48°13' W 123°42'.

Length 285 m; draft 11.2 m.

Type: Cargo ship. MMSI: 564442000.

Date/timePositionNaut miles runAvg speedWind from/ knotsBaromVisibWave heightAir tempDewpointWater temp
2017-Nov-24 04:00N 48°13' W 123°42'5 9.5
2017-Nov-24 03:30N 48°13' W 123°49'5 9.9
2017-Nov-24 03:00N 48°14' W 123°56'510.3
2017-Nov-24 02:30N 48°16' W 124°03'611.8
2017-Nov-24 02:00N 48°18' W 124°11'815.6
2017-Nov-24 01:30N 48°22' W 124°22'815.1
2017-Nov-24 01:01N 48°25' W 124°32'816.0
2017-Nov-24 00:30N 48°28' W 124°43'918.6
2017-Nov-24 00:00N 48°29' W 124°57'918.9
2017-Nov-23 23:30N 48°29' W 125°11'918.6
2017-Nov-23 23:01N 48°29' W 125°25'918.5
2017-Nov-23 22:30N 48°29' W 125°40'918.3
2017-Nov-23 22:00N 48°29' W 125°53'918.9
2017-Nov-23 21:30N 48°29' W 126°07'1019.3
2017-Nov-23 21:00N 48°29' W 126°22'89819.1
2017-Nov-21 22:00N 52°00' W 149°06'   020 / 81015.310.8 14.012.2 8.0

Dump ship's entire track history